Mexia, TX

12:18 PM CST on December 28, 2014 (GMT -0600)
Amateur Radio Station KC5PID | Change Station
CLOSE
Current Station
Personal Weather Station
Location: Mexia, TX
Elevation: 507 ft
Nearby Weather Stations

Elev 507 ft 31.67 °N, 96.47 °W | Updated 5 seconds ago

Overcast
Overcast
37.0 °F
Feels Like 30 °F
N
8.9
Wind Variable Wind from NNW
Gusts 13.0 mph

Today
High -- | Low -- °F
--% Chance of Precip.
Yesterday
High -- | Low -- °F
Precip. -- in
7:24 AM 5:30 PM
Waxing Crescent, 50% visible
Pressure 30.24 in
Visibility 10.0 miles
Clouds Scattered Clouds 3500 ft
Scattered Clouds 5000 ft
Overcast 9000 ft
Windchill 30 °F
Dew Point 32 °F
Humidity 82%
Rainfall 0.02 in
Snow Depth Not available.
UV 1.4 out of 12
Pollen 9.00 out of 12
Air Quality Not available.
Flu Activity Not available.
METAR KLXY 281755Z AUTO 34007KT 10SM -DZ SCT035 SCT050 OVC090 02/00 A3024 RMK AO2 60001 T00240000 10024 20013

More Conditions Fewer Conditions

Pressure 30.24 in
Visibility 10.0 miles
Clouds Scattered Clouds 3500 ft
Scattered Clouds 5000 ft
Overcast 9000 ft
Windchill 30 °F
Dew Point 32 °F
Humidity 82%
Rainfall 0.02 in
Snow Depth Not available.
UV 1.4 out of 12
Pollen 9.00 out of 12
Air Quality Not available.
Flu Activity Not available.
METAR KLXY 281755Z AUTO 34007KT 10SM -DZ SCT035 SCT050 OVC090 02/00 A3024 RMK AO2 60001 T00240000 10024 20013

More Conditions Fewer Conditions

Nowcast | as of 10:59 am CST on December 28, 2014

Light rain with occasional small sleet or snow will dampen a few areas east of a line from Cameron to Corsicana to Emory. Only trace amounts are expected and temperatures will remain above freezing. The rain is moving east and should exit the eastern counties of north/central TX late this afternoon. Otherwise...skies are clearing from the west. At 11 am the clearing line ran from Comanche to Sherman...with cloudy skies east of the line. The cloud cover is slowly moving east and by sunset much of north/central Texas will be partly cloudy.

×

10-Day Weather Forecast

Almanac

Astronomy

Dec. 28, 2014 Rise Set
Actual Time
Civil Twilight
Nautical Twilight
Astronomical Twilight
Moon
Length of Visible Light
Length of Day
Tomorrow will be .
, % of the Moon is Illuminated

Today's Extremes

State Highs State Lows

Community

WunderPhotos

Upload Photos

1,781,375 photos uploaded!

WunderBlogs® & News

Nearby

Air Quality

  Air Quality AQ Index Pollutant
Not available.

Snow Depth

Station Depth Elevation

Earthquake Activity

City Distance Mag. Time & Date
Minimum magnitude displayed is 2.5.

Coastal Water Temperatures

Place Temperature

Nearby Weather Stations